Time;durP1;ratioP1;P1;durP2;ratioP2;P2;SDS_P1;SDS_P2;PMS_P1;PMS_P2;Temp;Humidity;BMP_temperature;BMP_pressure;BME280_temperature;BME280_humidity;BME280_pressure;Samples;Min_cycle;Max_cycle;Signal;HPM_P1;HPM_P2
2021/10/09 00:01:55;;;;;;;63.47;39.92;;;9.90;99.90;;;;;;5081394;28;20093;-67
2021/10/09 00:04:21;;;;;;;70.15;39.45;;;9.90;99.90;;;;;;5105743;28;20044;-68
2021/10/09 00:06:46;;;;;;;66.50;40.28;;;9.90;99.90;;;;;;5099374;28;20091;-68
2021/10/09 00:09:12;;;;;;;55.13;37.58;;;9.90;99.90;;;;;;5105955;28;20069;-67
2021/10/09 00:11:38;;;;;;;58.17;39.13;;;9.80;99.90;;;;;;5080464;28;20036;-67
2021/10/09 00:14:10;;;;;;;68.53;40.08;;;9.90;99.90;;;;;;5105779;28;20496;-68
2021/10/09 00:16:37;;;;;;;71.80;43.03;;;9.90;99.90;;;;;;5098314;28;20499;-67
2021/10/09 00:19:04;;;;;;;67.35;39.60;;;9.90;99.90;;;;;;5105755;28;20071;-67
2021/10/09 00:21:30;;;;;;;66.75;42.42;;;9.90;99.90;;;;;;5098605;28;20064;-67
2021/10/09 00:23:58;;;;;;;66.22;40.90;;;9.90;99.90;;;;;;5087399;28;20065;-68
2021/10/09 00:26:24;;;;;;;61.80;39.15;;;9.90;99.90;;;;;;5079627;28;20079;-68
2021/10/09 00:28:51;;;;;;;67.32;41.25;;;10.00;99.90;;;;;;5086191;28;20036;-67
2021/10/09 00:31:16;;;;;;;72.18;42.08;;;9.90;99.90;;;;;;5099811;28;20036;-68
2021/10/09 00:33:42;;;;;;;67.95;39.63;;;9.90;99.90;;;;;;5084970;28;20044;-67
2021/10/09 00:36:08;;;;;;;70.20;41.35;;;9.90;99.90;;;;;;5101550;28;20049;-67
2021/10/09 00:38:33;;;;;;;69.70;41.58;;;9.90;99.90;;;;;;5098364;28;20104;-67
2021/10/09 00:41:00;;;;;;;86.38;44.25;;;9.80;99.90;;;;;;5100863;28;20043;-67
2021/10/09 00:43:25;;;;;;;75.85;44.45;;;9.80;99.90;;;;;;5094265;28;20071;-67
2021/10/09 00:45:54;;;;;;;73.22;43.33;;;9.80;99.90;;;;;;5099740;28;20133;-67
2021/10/09 00:48:19;;;;;;;78.97;43.60;;;9.70;99.90;;;;;;5093497;28;20480;-68
2021/10/09 00:50:45;;;;;;;77.32;44.58;;;9.70;99.90;;;;;;5100726;28;20055;-67
2021/10/09 00:53:13;;;;;;;84.30;46.30;;;9.60;99.90;;;;;;5070497;28;20507;-68
2021/10/09 00:55:39;;;;;;;;;;;9.60;99.90;;;;;;5081492;28;20047;-65
2021/10/09 00:58:06;;;;;;;72.35;41.75;;;9.60;99.90;;;;;;5091875;28;19924;-67
2021/10/09 01:00:32;;;;;;;77.18;43.42;;;9.60;99.90;;;;;;5098970;28;20036;-67
2021/10/09 01:02:58;;;;;;;87.68;44.85;;;9.70;99.90;;;;;;5103775;28;20040;-68
2021/10/09 01:05:26;;;;;;;93.60;48.50;;;9.60;99.90;;;;;;5098948;28;20062;-67
2021/10/09 01:07:52;;;;;;;;;;;9.50;99.90;;;;;;5091893;28;20058;-68
2021/10/09 01:10:18;;;;;;;75.55;44.05;;;9.50;99.90;;;;;;5077603;28;19924;-67
2021/10/09 01:12:43;;;;;;;88.68;47.28;;;9.50;99.90;;;;;;5091723;28;20052;-67
2021/10/09 01:15:21;;;;;;;94.38;49.00;;;9.50;99.90;;;;;;5097443;28;20042;-67
2021/10/09 01:17:47;;;;;;;92.80;44.85;;;9.40;99.90;;;;;;5092328;28;20055;-67
2021/10/09 01:20:14;;;;;;;97.47;48.08;;;9.40;99.90;;;;;;5096779;28;20069;-67
2021/10/09 01:22:40;;;;;;;89.97;47.75;;;9.40;99.90;;;;;;5100489;28;20075;-67
2021/10/09 01:25:08;;;;;;;92.10;46.83;;;9.40;99.90;;;;;;5096986;28;20036;-67
2021/10/09 01:27:34;;;;;;;93.10;47.17;;;9.40;99.90;;;;;;5104670;28;20079;-67
2021/10/09 01:30:00;;;;;;;88.65;45.00;;;9.40;99.90;;;;;;5097780;28;20036;-67
2021/10/09 01:32:25;;;;;;;90.97;44.33;;;9.30;99.90;;;;;;5079979;28;20051;-67
2021/10/09 01:34:51;;;;;;;90.90;46.78;;;9.30;99.90;;;;;;5097910;28;20071;-67
2021/10/09 01:37:17;;;;;;;100.60;48.47;;;9.40;99.90;;;;;;5103113;28;20047;-67
2021/10/09 01:39:47;;;;;;;107.97;49.25;;;9.20;99.90;;;;;;5099199;28;20044;-67
2021/10/09 01:42:13;;;;;;;115.85;51.55;;;9.20;99.90;;;;;;5101451;28;20296;-67
2021/10/09 01:44:39;;;;;;;110.22;50.85;;;9.10;99.90;;;;;;5100681;28;20059;-67
2021/10/09 01:47:05;;;;;;;114.10;53.70;;;9.20;99.90;;;;;;5091324;28;20048;-67
2021/10/09 01:49:31;;;;;;;125.40;55.15;;;9.20;99.90;;;;;;5091797;28;20087;-68
2021/10/09 01:51:56;;;;;;;121.28;53.75;;;9.20;99.90;;;;;;5085649;28;20094;-68
2021/10/09 01:54:22;;;;;;;143.00;57.83;;;9.20;99.90;;;;;;5085707;28;20056;-67
2021/10/09 01:56:49;;;;;;;132.98;56.67;;;9.10;99.90;;;;;;5097173;28;20044;-67
2021/10/09 01:59:15;;;;;;;127.03;56.47;;;9.00;99.90;;;;;;5081733;28;20048;-67
2021/10/09 02:01:41;;;;;;;133.73;58.03;;;9.00;99.90;;;;;;5076755;28;20055;-67
2021/10/09 02:04:07;;;;;;;149.18;57.53;;;8.90;99.90;;;;;;5084789;28;20054;-67
2021/10/09 02:06:33;;;;;;;144.98;57.47;;;8.90;99.90;;;;;;5074933;28;20041;-67
2021/10/09 02:08:59;;;;;;;152.98;59.97;;;9.00;99.90;;;;;;5098764;28;20082;-68
2021/10/09 02:11:38;;;;;;;141.40;58.65;;;9.00;99.90;;;;;;5095437;28;20044;-66
2021/10/09 02:17:24;;;;;;;158.15;62.45;;;9.00;99.90;;;;;;5092993;28;20051;-66
2021/10/09 02:28:23;;;;;;;207.98;64.47;;;8.90;99.90;;;;;;5001291;28;20176;-65
2021/10/09 02:30:50;;;;;;;198.43;62.15;;;8.90;99.90;;;;;;4989908;28;20083;-67
2021/10/09 02:33:16;;;;;;;198.10;64.25;;;8.90;99.90;;;;;;5016718;28;20089;-67
2021/10/09 02:35:42;;;;;;;219.13;68.47;;;8.90;99.90;;;;;;5011660;28;20031;-67
2021/10/09 02:38:09;;;;;;;215.48;68.32;;;8.80;99.90;;;;;;5001298;28;20174;-67
2021/10/09 02:40:37;;;;;;;249.52;71.35;;;8.90;99.90;;;;;;4998189;28;20090;-67
2021/10/09 02:43:03;;;;;;;268.30;70.13;;;8.90;99.90;;;;;;4979895;28;20081;-67
2021/10/09 02:45:29;;;;;;;253.80;68.13;;;8.90;99.90;;;;;;4970619;28;20396;-67
2021/10/09 02:48:03;;;;;;;349.98;75.35;;;9.00;99.90;;;;;;4982873;28;20127;-67
2021/10/09 02:50:29;;;;;;;302.58;73.32;;;9.10;99.90;;;;;;4984415;28;20104;-66
2021/10/09 02:52:56;;;;;;;413.15;82.00;;;9.10;99.90;;;;;;4981869;28;20054;-67
2021/10/09 02:55:22;;;;;;;511.00;89.43;;;9.20;99.90;;;;;;4983888;28;20059;-66
2021/10/09 02:57:49;;;;;;;572.25;89.43;;;9.20;99.90;;;;;;4982404;28;20054;-66
2021/10/09 03:00:16;;;;;;;499.92;80.63;;;9.30;99.90;;;;;;5075633;28;20113;-66
2021/10/09 03:02:42;;;;;;;538.72;82.10;;;9.30;99.90;;;;;;5052366;28;20084;-68
2021/10/09 03:05:10;;;;;;;594.03;84.93;;;9.30;99.90;;;;;;5077075;28;20037;-67
2021/10/09 03:07:36;;;;;;;944.05;119.65;;;9.40;99.90;;;;;;5071279;28;20076;-66
2021/10/09 03:10:03;;;;;;;552.85;80.43;;;9.40;99.90;;;;;;5058410;28;20049;-66
2021/10/09 03:12:29;;;;;;;839.28;97.65;;;9.40;99.90;;;;;;5054973;28;20052;-66
2021/10/09 03:14:55;;;;;;;600.97;76.55;;;9.40;99.90;;;;;;5063738;28;20053;-67
2021/10/09 03:17:21;;;;;;;932.20;104.05;;;9.40;99.90;;;;;;5057085;28;20051;-66
2021/10/09 03:19:47;;;;;;;676.88;86.45;;;9.30;99.90;;;;;;5068579;28;20076;-67
2021/10/09 03:22:13;;;;;;;642.63;80.50;;;9.30;99.90;;;;;;5074730;28;20063;-65
2021/10/09 03:24:38;;;;;;;1125.55;114.20;;;9.40;99.90;;;;;;5080863;28;20587;-65
2021/10/09 03:27:04;;;;;;;586.25;79.80;;;9.30;99.90;;;;;;5076413;28;20112;-65
2021/10/09 03:29:30;;;;;;;612.67;79.55;;;9.40;99.90;;;;;;5079202;28;20036;-65
2021/10/09 03:31:56;;;;;;;300.98;45.42;;;9.20;99.90;;;;;;5058719;28;20052;-65
2021/10/09 03:34:21;;;;;;;458.55;54.70;;;9.30;99.90;;;;;;5058845;28;20076;-65
2021/10/09 03:36:47;;;;;;;494.98;63.33;;;9.30;99.90;;;;;;5062803;28;20051;-65
2021/10/09 03:39:16;;;;;;;458.60;64.15;;;9.20;99.90;;;;;;5074827;28;20048;-65
2021/10/09 03:41:47;;;;;;;484.95;70.38;;;9.20;99.90;;;;;;5067754;28;20041;-66
2021/10/09 03:44:12;;;;;;;398.15;66.93;;;9.20;99.90;;;;;;5079015;28;20060;-65
2021/10/09 03:46:47;;;;;;;464.42;70.47;;;9.20;99.90;;;;;;5102751;28;20070;-65
2021/10/09 03:54:29;;;;;;;254.23;43.75;;;9.10;99.90;;;;;;5100012;28;20097;-64
2021/10/09 03:56:55;;;;;;;211.23;39.40;;;9.00;99.90;;;;;;5080594;28;20094;-65
2021/10/09 03:59:20;;;;;;;349.55;59.40;;;8.90;99.90;;;;;;5084001;28;20053;-65
2021/10/09 04:01:46;;;;;;;435.10;64.93;;;8.90;99.90;;;;;;5090468;28;20067;-65
2021/10/09 04:04:12;;;;;;;340.88;54.08;;;8.80;99.90;;;;;;5103476;28;20742;-65
2021/10/09 04:06:37;;;;;;;211.38;38.13;;;8.80;99.90;;;;;;5078524;28;20044;-64
2021/10/09 04:09:03;;;;;;;301.10;51.72;;;8.80;99.90;;;;;;5101727;28;20100;-64
2021/10/09 04:11:29;;;;;;;348.45;60.90;;;8.90;99.90;;;;;;5088245;28;20051;-66
2021/10/09 04:13:55;;;;;;;350.80;56.40;;;8.80;99.90;;;;;;5102799;28;20067;-64
2021/10/09 04:16:20;;;;;;;514.25;73.72;;;8.80;99.90;;;;;;5094381;28;20044;-65
2021/10/09 04:18:46;;;;;;;382.48;61.75;;;8.80;99.90;;;;;;5101774;28;20492;-64
2021/10/09 04:21:11;;;;;;;430.30;69.63;;;8.80;99.90;;;;;;5093719;28;20125;-64
2021/10/09 04:23:37;;;;;;;435.88;68.75;;;8.80;99.90;;;;;;5101309;28;20048;-64
2021/10/09 04:26:03;;;;;;;430.13;70.32;;;8.80;99.90;;;;;;5094045;28;20025;-64
2021/10/09 04:28:28;;;;;;;513.55;75.22;;;8.80;99.90;;;;;;5101881;28;20519;-65
2021/10/09 04:30:54;;;;;;;554.80;79.57;;;8.80;99.90;;;;;;5093841;28;20040;-64
2021/10/09 04:33:20;;;;;;;409.55;61.60;;;8.90;99.90;;;;;;5100459;28;20048;-64
2021/10/09 04:35:45;;;;;;;181.27;35.80;;;8.80;99.90;;;;;;5083251;28;20044;-64
2021/10/09 04:38:11;;;;;;;139.82;30.42;;;8.80;99.90;;;;;;5099361;28;20043;-64
2021/10/09 04:40:38;;;;;;;256.52;46.00;;;8.70;99.90;;;;;;5095381;28;20048;-66
2021/10/09 04:43:04;;;;;;;206.02;40.47;;;8.80;99.90;;;;;;5097708;28;20128;-65
2021/10/09 04:45:30;;;;;;;178.13;38.33;;;8.70;99.90;;;;;;5097583;28;20052;-66
2021/10/09 04:47:56;;;;;;;340.13;58.85;;;8.70;99.90;;;;;;5093993;28;20051;-67
2021/10/09 04:50:22;;;;;;;176.02;39.20;;;8.70;99.90;;;;;;5084157;28;20048;-66
2021/10/09 04:52:47;;;;;;;364.05;61.08;;;8.80;99.90;;;;;;5082506;28;20040;-66
2021/10/09 04:55:13;;;;;;;265.63;48.88;;;8.80;99.90;;;;;;5098544;28;20403;-66
2021/10/09 04:57:39;;;;;;;283.15;58.05;;;8.80;99.90;;;;;;5102604;28;20066;-66
2021/10/09 05:00:06;;;;;;;329.58;60.70;;;8.80;99.90;;;;;;5096794;28;20356;-66
2021/10/09 05:02:32;;;;;;;349.13;60.58;;;8.80;99.90;;;;;;5103401;28;20411;-66
2021/10/09 05:04:57;;;;;;;301.08;52.83;;;8.80;99.90;;;;;;5096527;28;20048;-65
2021/10/09 05:07:23;;;;;;;414.80;68.35;;;8.90;99.90;;;;;;5103558;28;20044;-66
2021/10/09 05:09:50;;;;;;;197.70;41.88;;;8.90;99.90;;;;;;5094862;28;20043;-66
2021/10/09 05:12:16;;;;;;;332.45;60.13;;;8.90;99.90;;;;;;5102450;28;20117;-66
2021/10/09 05:14:42;;;;;;;284.10;51.95;;;8.80;99.90;;;;;;5095076;28;20044;-66
2021/10/09 05:17:08;;;;;;;334.50;61.15;;;8.90;99.90;;;;;;5101704;28;20496;-66
2021/10/09 05:19:34;;;;;;;403.60;67.30;;;8.90;99.90;;;;;;5094416;28;20507;-64
2021/10/09 05:21:59;;;;;;;234.63;49.10;;;8.90;99.90;;;;;;5101085;28;20067;-66
2021/10/09 05:24:25;;;;;;;420.95;67.82;;;8.90;99.90;;;;;;5093277;28;20048;-66
2021/10/09 05:26:51;;;;;;;346.63;68.32;;;8.90;99.90;;;;;;5101381;28;20036;-66
2021/10/09 05:29:18;;;;;;;268.65;56.25;;;9.00;99.90;;;;;;5075943;28;20040;-66
2021/10/09 05:31:47;;;;;;;243.25;49.65;;;9.00;99.90;;;;;;5098540;28;20111;-66
2021/10/09 05:34:13;;;;;;;312.55;56.90;;;8.90;99.90;;;;;;5075982;28;20098;-66
2021/10/09 05:36:39;;;;;;;302.83;55.05;;;8.90;99.90;;;;;;5100475;28;20133;-66
2021/10/09 05:39:05;;;;;;;178.70;47.33;;;9.00;99.90;;;;;;5076252;28;20040;-64
2021/10/09 05:41:31;;;;;;;256.30;62.47;;;9.00;99.90;;;;;;5098917;28;20628;-66
2021/10/09 05:43:57;;;;;;;310.13;67.40;;;9.00;99.90;;;;;;5096745;28;20048;-67
2021/10/09 05:46:23;;;;;;;255.23;55.95;;;9.00;99.90;;;;;;5092793;28;20045;-64
2021/10/09 05:48:49;;;;;;;252.20;54.10;;;9.00;99.90;;;;;;5103243;28;20033;-67
2021/10/09 06:45:20;;;;;;;262.80;63.75;;;8.90;99.90;;;;;;5024043;28;20081;-67
2021/10/09 06:47:50;;;;;;;175.70;48.05;;;8.90;99.90;;;;;;5025249;28;20096;-67
2021/10/09 07:00:56;;;;;;;207.50;52.00;;;8.90;99.90;;;;;;5024473;28;20046;-67
2021/10/09 07:03:22;;;;;;;163.80;43.58;;;8.90;99.90;;;;;;5008781;28;20052;-66
2021/10/09 07:05:48;;;;;;;287.00;69.90;;;8.80;99.90;;;;;;5052711;28;20561;-67
2021/10/09 07:08:14;;;;;;;155.60;47.72;;;8.90;99.90;;;;;;5106104;28;20073;-67
2021/10/09 07:10:43;;;;;;;157.68;48.75;;;8.90;99.90;;;;;;5105440;28;20165;-67
2021/10/09 07:13:09;;;;;;;173.63;57.35;;;9.00;99.90;;;;;;5106215;28;20051;-67
2021/10/09 07:15:38;;;;;;;187.52;55.97;;;8.90;99.90;;;;;;5098602;28;20045;-67
2021/10/09 07:18:05;;;;;;;195.93;60.25;;;9.00;99.90;;;;;;5105822;28;20492;-67
2021/10/09 07:20:31;;;;;;;209.10;59.80;;;9.00;99.90;;;;;;5098434;28;20082;-67
2021/10/09 07:22:57;;;;;;;266.98;65.15;;;9.00;99.90;;;;;;5105200;28;20040;-67
2021/10/09 07:25:23;;;;;;;174.20;47.97;;;9.00;99.90;;;;;;5099335;28;20040;-67
2021/10/09 07:27:49;;;;;;;205.77;55.40;;;9.00;99.90;;;;;;5103023;28;20422;-67
2021/10/09 07:30:16;;;;;;;211.50;58.38;;;9.00;99.90;;;;;;5102174;28;20045;-67
2021/10/09 07:32:44;;;;;;;172.13;51.58;;;9.00;99.90;;;;;;5101166;28;20045;-67
2021/10/09 07:35:10;;;;;;;201.15;57.72;;;9.00;99.90;;;;;;5103354;28;20051;-67
2021/10/09 07:37:36;;;;;;;188.30;57.65;;;9.00;99.90;;;;;;5098840;28;20476;-67
2021/10/09 07:40:02;;;;;;;202.18;59.30;;;9.10;99.90;;;;;;5104639;28;20048;-67
2021/10/09 07:42:28;;;;;;;186.27;56.63;;;9.10;99.90;;;;;;5098532;28;20048;-67
2021/10/09 07:44:53;;;;;;;112.57;39.35;;;9.10;99.90;;;;;;5104987;28;20044;-67
2021/10/09 07:47:19;;;;;;;163.27;53.28;;;9.00;99.90;;;;;;5098121;28;20052;-67
2021/10/09 07:49:45;;;;;;;163.38;55.15;;;9.10;99.90;;;;;;5099992;28;20040;-67
2021/10/09 07:52:11;;;;;;;158.77;54.47;;;9.10;99.90;;;;;;5094042;28;20047;-67
2021/10/09 07:54:36;;;;;;;127.13;48.20;;;9.00;99.90;;;;;;5099894;28;20044;-67
2021/10/09 07:57:03;;;;;;;117.65;41.10;;;9.00;99.90;;;;;;5092738;28;20279;-67
2021/10/09 07:59:29;;;;;;;134.00;51.42;;;9.00;99.90;;;;;;5101224;28;20044;-67
2021/10/09 08:01:55;;;;;;;130.20;51.55;;;9.00;99.90;;;;;;5092892;28;20036;-67
2021/10/09 08:04:21;;;;;;;130.75;50.17;;;9.00;99.90;;;;;;5100220;28;20515;-67
2021/10/09 08:06:46;;;;;;;118.60;49.38;;;9.10;99.90;;;;;;5076054;28;20044;-66
2021/10/09 08:09:12;;;;;;;120.50;52.17;;;9.00;99.90;;;;;;5098627;28;20048;-66
2021/10/09 08:11:38;;;;;;;103.07;46.63;;;9.10;99.90;;;;;;5095921;28;20036;-67
2021/10/09 08:14:04;;;;;;;107.10;49.15;;;9.00;99.90;;;;;;5096467;28;20041;-67
2021/10/09 08:16:30;;;;;;;116.20;51.45;;;9.00;99.90;;;;;;5098021;28;20055;-67
2021/10/09 08:18:59;;;;;;;90.35;39.28;;;9.10;99.90;;;;;;5094571;28;20470;-67
2021/10/09 08:21:27;;;;;;;104.43;43.92;;;9.10;99.90;;;;;;5098893;28;20051;-67
2021/10/09 08:40:15;;;;;;;118.97;52.00;;;9.30;99.90;;;;;;5032831;28;20049;-67
2021/10/09 08:42:41;;;;;;;128.20;51.95;;;9.30;99.90;;;;;;5024885;28;20063;-67
2021/10/09 08:45:08;;;;;;;110.82;49.60;;;9.40;99.90;;;;;;5036207;28;20062;-67
2021/10/09 08:47:36;;;;;;;90.85;43.78;;;9.30;99.90;;;;;;5016439;28;20093;-67
2021/10/09 08:50:03;;;;;;;;;;;9.40;99.90;;;;;;5034234;28;20088;-66
2021/10/09 08:52:30;;;;;;;91.75;44.58;;;9.30;99.90;;;;;;5041894;28;20347;-66
2021/10/09 08:54:56;;;;;;;89.95;44.13;;;9.30;99.90;;;;;;5040979;28;20065;-66
2021/10/09 08:57:24;;;;;;;85.72;41.67;;;9.40;99.90;;;;;;5041461;28;20053;-67
2021/10/09 09:00:04;;;;;;;;;;;9.50;99.90;;;;;;5042425;28;20050;-65
2021/10/09 09:02:43;;;;;;;;;;;9.50;99.90;;;;;;5042085;28;19921;-68
2021/10/09 09:05:52;;;;;;;84.30;43.03;;;9.70;99.90;;;;;;5040083;28;19976;-67
2021/10/09 09:31:05;;;;;;;78.82;40.08;;;10.20;99.90;;;;;;5041303;28;20045;-66
2021/10/09 09:33:41;;;;;;;71.60;40.17;;;10.60;99.90;;;;;;5042388;28;20064;-66
2021/10/09 09:36:24;;;;;;;67.85;38.25;;;10.60;99.90;;;;;;5041551;28;20049;-65
2021/10/09 09:41:24;;;;;;;62.35;36.65;;;11.10;99.90;;;;;;5041139;28;20050;-67
2021/10/09 09:43:54;;;;;;;63.78;36.25;;;11.50;99.90;;;;;;5034194;28;20045;-66
2021/10/09 09:46:26;;;;;;;61.55;38.40;;;11.80;99.90;;;;;;5044214;28;20060;-66
2021/10/09 09:48:52;;;;;;;59.17;35.70;;;12.00;99.90;;;;;;5041408;28;20049;-67
2021/10/09 09:51:21;;;;;;;55.33;33.78;;;11.90;99.90;;;;;;5021706;28;20057;-66
2021/10/09 09:53:48;;;;;;;58.20;34.92;;;11.90;99.90;;;;;;5024910;28;20352;-66
2021/10/09 09:56:16;;;;;;;58.72;34.35;;;12.00;99.90;;;;;;5037551;28;20120;-65
2021/10/09 09:58:45;;;;;;;53.55;33.83;;;12.20;99.90;;;;;;5041247;28;20167;-66
2021/10/09 10:01:12;;;;;;;58.83;31.92;;;12.50;99.90;;;;;;5041278;28;20045;-66
2021/10/09 10:03:45;;;;;;;46.13;30.92;;;12.80;99.90;;;;;;5040906;28;20556;-66
2021/10/09 10:06:11;;;;;;;49.00;32.13;;;12.90;99.90;;;;;;5055214;28;20040;-66
2021/10/09 10:08:41;;;;;;;56.10;32.28;;;12.90;99.90;;;;;;5092310;28;20075;-66
2021/10/09 10:11:11;;;;;;;43.08;28.85;;;13.10;99.90;;;;;;5072680;28;20040;-66
2021/10/09 10:13:38;;;;;;;51.70;31.60;;;13.20;99.90;;;;;;5092659;28;20519;-66
2021/10/09 10:16:09;;;;;;;48.70;28.70;;;13.20;99.90;;;;;;5097552;28;20047;-67
2021/10/09 10:18:44;;;;;;;51.15;29.05;;;13.20;99.90;;;;;;5093429;28;20055;-66
2021/10/09 10:21:11;;;;;;;45.88;28.83;;;13.20;99.90;;;;;;5097982;28;20101;-66
2021/10/09 10:23:42;;;;;;;60.60;29.83;;;12.90;99.90;;;;;;5093438;28;20128;-66
2021/10/09 10:26:19;;;;;;;50.90;29.35;;;13.30;99.90;;;;;;5095586;28;20044;-67
2021/10/09 10:29:05;;;;;;;42.72;26.55;;;13.40;99.90;;;;;;5092483;28;20045;-66
2021/10/09 10:31:33;;;;;;;40.55;25.55;;;13.30;99.90;;;;;;5089368;28;20393;-66
2021/10/09 10:34:26;;;;;;;39.08;24.13;;;13.30;99.90;;;;;;5091983;28;20048;-66
2021/10/09 10:36:51;;;;;;;34.85;23.15;;;13.50;99.90;;;;;;5088670;28;20055;-66
2021/10/09 10:39:24;;;;;;;38.10;22.65;;;13.70;99.90;;;;;;5072222;28;20051;-66
2021/10/09 10:41:56;;;;;;;43.60;22.88;;;13.80;99.90;;;;;;5097987;28;20111;-66
2021/10/09 10:53:50;;;;;;;39.78;24.52;;;14.30;99.90;;;;;;5004090;28;20429;-66
2021/10/09 10:56:16;;;;;;;39.85;24.65;;;14.00;99.90;;;;;;5006789;28;20049;-66
2021/10/09 10:58:42;;;;;;;35.60;22.30;;;14.10;99.90;;;;;;5007903;28;20054;-67
2021/10/09 11:01:21;;;;;;;45.13;25.63;;;14.20;99.90;;;;;;5005399;28;20665;-66
2021/10/09 11:03:56;;;;;;;36.50;22.38;;;14.30;99.90;;;;;;5007959;28;20101;-66
2021/10/09 11:06:26;;;;;;;31.90;21.05;;;14.40;99.90;;;;;;5001765;28;20118;-66
2021/10/09 11:08:56;;;;;;;31.73;20.38;;;14.40;99.90;;;;;;5001563;28;20043;-66
2021/10/09 11:11:35;;;;;;;31.73;20.00;;;14.70;99.90;;;;;;4989511;28;20132;-67
2021/10/09 11:14:01;;;;;;;35.35;20.60;;;14.70;99.90;;;;;;5005453;28;20046;-67
2021/10/09 11:16:33;;;;;;;29.73;19.05;;;14.80;99.90;;;;;;5006046;28;20053;-67
2021/10/09 11:18:58;;;;;;;32.97;20.15;;;14.70;99.90;;;;;;5083821;28;20044;-67
2021/10/09 11:21:24;;;;;;;30.50;20.00;;;14.80;99.90;;;;;;5098966;28;20501;-67
2021/10/09 11:23:55;;;;;;;32.47;19.52;;;14.70;99.90;;;;;;5092728;28;20572;-67
2021/10/09 11:26:21;;;;;;;29.50;18.13;;;15.00;99.90;;;;;;5099410;28;20051;-67
2021/10/09 11:28:59;;;;;;;26.25;15.60;;;15.10;99.90;;;;;;5092540;28;20048;-67
2021/10/09 11:31:26;;;;;;;26.20;15.75;;;15.50;99.90;;;;;;5099463;28;20428;-67
2021/10/09 11:34:02;;;;;;;28.23;15.35;;;16.10;99.90;;;;;;5096594;28;20131;-67
2021/10/09 11:36:28;;;;;;;29.55;15.88;;;16.30;99.90;;;;;;5103126;28;20040;-67
2021/10/09 11:39:09;;;;;;;23.37;13.90;;;16.40;99.90;;;;;;5095487;28;20039;-67
2021/10/09 11:41:35;;;;;;;21.05;13.50;;;16.30;99.90;;;;;;5102674;28;20351;-67
2021/10/09 11:44:05;;;;;;;23.38;14.00;;;16.60;99.90;;;;;;5095379;28;20086;-67
2021/10/09 11:55:27;;;;;;;24.10;14.25;;;18.00;99.90;;;;;;5042561;28;20080;-67
2021/10/09 11:57:54;;;;;;;26.20;13.23;;;18.20;99.90;;;;;;5043702;28;20132;-67
2021/10/09 12:00:28;;;;;;;24.33;13.98;;;17.90;98.90;;;;;;5043472;28;20080;-67
2021/10/09 12:02:59;;;;;;;21.20;14.07;;;17.50;99.90;;;;;;5043521;28;20075;-67
2021/10/09 12:05:35;;;;;;;19.98;13.18;;;17.80;98.90;;;;;;5043475;28;20057;-67
2021/10/09 12:08:15;;;;;;;23.85;14.88;;;17.40;99.10;;;;;;5043463;28;20045;-67
2021/10/09 12:11:07;;;;;;;18.27;13.85;;;17.30;99.20;;;;;;5042542;28;20053;-67
2021/10/09 12:13:47;;;;;;;20.02;15.10;;;17.70;98.10;;;;;;5027026;28;20049;-67
2021/10/09 12:16:13;;;;;;;24.23;14.30;;;16.90;99.20;;;;;;5040259;28;20037;-67
2021/10/09 12:18:56;;;;;;;19.52;12.52;;;17.60;99.90;;;;;;5043395;28;20185;-67
2021/10/09 12:21:33;;;;;;;25.80;14.40;;;17.60;98.90;;;;;;5040819;28;20053;-67
2021/10/09 12:23:59;;;;;;;22.45;12.60;;;17.50;96.90;;;;;;5044387;28;20513;-68
2021/10/09 12:26:26;;;;;;;21.85;13.48;;;17.80;94.60;;;;;;5094943;28;20073;-68
2021/10/09 12:29:21;;;;;;;;;;;18.40;97.00;;;;;;5102504;28;20069;-66
2021/10/09 12:31:47;;;;;;;19.23;12.63;;;18.30;93.50;;;;;;5087760;28;19920;-66
2021/10/09 12:34:31;;;;;;;23.33;13.05;;;18.60;90.60;;;;;;5102471;28;20063;-67
2021/10/09 12:37:22;;;;;;;20.17;12.45;;;18.00;92.30;;;;;;5095623;28;20466;-67
2021/10/09 12:40:13;;;;;;;24.55;12.98;;;18.60;92.60;;;;;;5102040;28;20102;-67
2021/10/09 12:42:52;;;;;;;18.15;12.10;;;19.30;91.40;;;;;;5095382;28;20047;-67
2021/10/09 12:45:19;;;;;;;15.60;11.63;;;19.40;86.90;;;;;;5088065;28;20512;-68
2021/10/09 12:47:45;;;;;;;18.27;11.30;;;19.70;91.20;;;;;;5095395;28;20097;-68
2021/10/09 12:50:11;;;;;;;20.02;12.50;;;20.00;85.20;;;;;;5100635;28;20131;-68
2021/10/09 12:52:37;;;;;;;19.83;12.13;;;19.20;75.70;;;;;;5103549;28;21428;-68
2021/10/09 12:55:04;;;;;;;18.00;10.85;;;19.40;77.80;;;;;;5097549;28;20040;-68
2021/10/09 12:57:30;;;;;;;18.75;13.07;;;19.20;75.10;;;;;;5104318;28;20518;-68
2021/10/09 12:59:57;;;;;;;18.33;11.52;;;18.80;79.80;;;;;;5102495;28;20173;-68
2021/10/09 13:02:23;;;;;;;19.55;11.40;;;18.80;78.30;;;;;;5103992;28;20036;-68
2021/10/09 13:04:48;;;;;;;17.77;10.70;;;18.40;77.10;;;;;;5095915;28;20055;-68
2021/10/09 13:07:14;;;;;;;17.98;10.90;;;18.30;79.00;;;;;;5103597;28;20039;-68
2021/10/09 13:09:40;;;;;;;18.20;11.32;;;18.90;82.10;;;;;;5094652;28;20052;-68
2021/10/09 13:12:08;;;;;;;15.05;11.35;;;19.30;77.10;;;;;;5103152;28;20491;-68
2021/10/09 13:14:34;;;;;;;21.67;12.10;;;19.60;75.20;;;;;;5095551;28;20044;-68
2021/10/09 13:17:00;;;;;;;18.10;10.80;;;19.80;71.90;;;;;;5102535;28;20089;-69
2021/10/09 13:19:25;;;;;;;13.80;10.25;;;19.80;76.10;;;;;;5095779;28;20047;-69
2021/10/09 13:21:51;;;;;;;16.60;10.57;;;20.10;71.20;;;;;;5102736;28;20040;-69
2021/10/09 13:24:17;;;;;;;16.15;10.52;;;20.40;71.80;;;;;;5094551;28;20074;-69
2021/10/09 13:26:43;;;;;;;14.93;9.97;;;20.70;67.80;;;;;;5102130;28;20082;-69
2021/10/09 13:29:09;;;;;;;15.95;11.05;;;20.20;67.30;;;;;;5095321;28;20045;-70
2021/10/09 13:31:34;;;;;;;14.00;10.23;;;20.20;69.90;;;;;;5102380;28;20054;-69
2021/10/09 13:34:00;;;;;;;18.05;9.80;;;20.00;67.30;;;;;;5096760;28;20040;-69
2021/10/09 13:36:26;;;;;;;20.30;11.30;;;20.30;70.00;;;;;;5100397;28;20115;-69
2021/10/09 13:38:53;;;;;;;22.67;10.18;;;19.80;65.70;;;;;;5097617;28;20040;-70
2021/10/09 13:41:19;;;;;;;16.27;10.13;;;20.30;68.30;;;;;;5098206;28;20044;-69
2021/10/09 13:43:45;;;;;;;18.07;9.27;;;20.40;68.30;;;;;;5099306;28;20041;-69
2021/10/09 13:46:15;;;;;;;19.30;10.52;;;21.00;66.10;;;;;;5096662;28;20047;-69
2021/10/09 13:48:41;;;;;;;17.50;10.02;;;21.60;65.10;;;;;;5103919;28;20040;-69
2021/10/09 13:51:12;;;;;;;15.65;9.13;;;20.40;63.40;;;;;;5101394;28;20032;-70
2021/10/09 13:53:41;;;;;;;17.38;9.75;;;20.40;63.50;;;;;;5099777;28;20149;-69
2021/10/09 13:56:07;;;;;;;14.82;9.98;;;20.30;65.60;;;;;;5101738;28;21512;-69
2021/10/09 13:58:33;;;;;;;18.02;10.07;;;20.50;65.70;;;;;;5098764;28;20043;-69
2021/10/09 14:00:59;;;;;;;14.98;9.20;;;20.60;66.60;;;;;;5104163;28;20040;-69
2021/10/09 14:03:26;;;;;;;16.87;9.70;;;21.00;64.90;;;;;;5104302;28;20079;-69
2021/10/09 14:05:53;;;;;;;18.23;9.50;;;20.60;62.40;;;;;;5103874;28;20115;-69
2021/10/09 14:08:18;;;;;;;16.23;10.10;;;21.10;65.80;;;;;;5095903;28;20052;-69
2021/10/09 14:10:44;;;;;;;13.10;9.57;;;21.40;64.00;;;;;;5102287;28;20074;-69
2021/10/09 14:13:11;;;;;;;17.17;9.47;;;21.10;61.60;;;;;;5096369;28;20035;-69
2021/10/09 14:15:38;;;;;;;17.80;9.50;;;20.90;64.20;;;;;;5103071;28;20408;-69
2021/10/09 14:18:05;;;;;;;20.30;9.00;;;21.00;63.00;;;;;;5095807;28;20105;-69
2021/10/09 14:20:31;;;;;;;22.27;9.98;;;20.60;63.40;;;;;;5102717;28;20052;-69
2021/10/09 14:22:58;;;;;;;28.03;9.87;;;20.80;63.20;;;;;;5095224;28;20051;-69
2021/10/09 14:25:31;;;;;;;17.77;9.18;;;20.20;62.20;;;;;;5101947;28;20523;-69
2021/10/09 14:28:01;;;;;;;17.33;9.25;;;20.10;64.60;;;;;;5094890;28;20416;-69
2021/10/09 14:30:27;;;;;;;15.13;9.32;;;19.60;64.70;;;;;;5102098;28;20036;-69
2021/10/09 14:32:53;;;;;;;15.35;9.02;;;19.30;67.80;;;;;;5089788;28;20491;-69
2021/10/09 14:35:20;;;;;;;18.25;9.18;;;19.60;66.60;;;;;;5102133;28;20070;-70
2021/10/09 14:37:45;;;;;;;15.65;9.60;;;19.40;68.00;;;;;;5101037;28;20063;-69
2021/10/09 14:40:12;;;;;;;20.30;9.77;;;19.60;66.10;;;;;;5100974;28;20161;-70
2021/10/09 14:42:38;;;;;;;15.70;9.90;;;19.70;67.00;;;;;;5094958;28;20040;-70
2021/10/09 14:45:05;;;;;;;14.15;9.68;;;19.50;67.90;;;;;;5101007;28;20059;-69
2021/10/09 14:50:02;;;;;;;16.85;9.40;;;19.60;68.60;;;;;;5091172;28;20120;-70
2021/10/09 14:52:39;;;;;;;16.15;9.90;;;19.80;67.20;;;;;;5084552;28;20527;-70
2021/10/09 15:19:29;;;;;;;20.05;9.88;;;18.80;74.20;;;;;;5107317;28;20052;-70
2021/10/09 15:21:55;;;;;;;37.05;9.57;;;18.70;74.00;;;;;;5099934;28;20044;-69
2021/10/09 15:24:20;;;;;;;17.05;10.32;;;18.60;75.20;;;;;;5105591;28;20077;-69